ZSPD/PVG METAR and TAF weather

Enter ICAO airport designator
Station Type Date Time Source
ZSPD METAR 2020/06/06 02:00 UTC NOAA

ZSPD 060200Z 07005MPS 030V100 9999 BKN010 23/21 Q1008 BECMG TL0330 SCT010 BKN033


Station Type Date Time Source
ZSPD Decoded METAR 2020/06/06 02:00 UTC NOAA

Shanghai / Pudong, China (ZSPD) 31-07N 121-46E
Jun 05, 2020 - 10:00 PM EDT / 2020.06.06 0200 UTC
Wind: from the ENE (070 degrees) at 11 MPH (10 KT) (direction variable):0
Visibility: greater than 7 mile(s):0
Sky conditions: mostly cloudy
Temperature: 73 F (23 C)
Dew Point: 69 F (21 C)
Relative Humidity: 88%
Pressure (altimeter): 29.77 in. Hg (1008 hPa)
ob: ZSPD 060200Z 07005MPS 030V100 9999 BKN010 23/21 Q1008 BECMG TL0330 SCT010 BKN033
cycle: 2

Station Type Date Time Source
ZSPD TAF 2020/06/05 18:54 UTC NOAA

TAF
AMD TAF
AMD ZSPD 051849Z 0518/0618 05004MPS 3500 BR BKN006 TX27/0606Z TN20/0521Z
TEMPO 0518/0524 +SHRA BKN006 FEW030CB
BECMG 0523/0524 BKN011

Example: see airport list